KADG/ADG METAR and TAF weather

Enter ICAO airport designator
Station Type Date Time Source
KADG METAR 2019/02/17 07:53 UTC NOAA

KADG 170753Z AUTO 13011KT 10SM OVC018 M05/M09 A3006 RMK AO2 SLP194 T10501089 TSNO


Station Type Date Time Source
KADG Decoded METAR 2019/02/17 07:53 UTC NOAA

ADRIAN LENAWEE COUNTY AIRPORT, MI, United States (KADG) 41-52N 84-05W 241M
Feb 17, 2019 - 02:53 AM EST / 2019.02.17 0753 UTC
Wind: from the SE (130 degrees) at 13 MPH (11 KT):0
Visibility: 10 mile(s):0
Sky conditions: overcast
Temperature: 23.0 F (-5.0 C)
Windchill: 10 F (-12 C):1
Dew Point: 16.0 F (-8.9 C)
Relative Humidity: 74%
Pressure (altimeter): 30.06 in. Hg (1017 hPa)
ob: KADG 170753Z AUTO 13011KT 10SM OVC018 M05/M09 A3006 RMK AO2 SLP194 T10501089 TSNO
cycle: 8

Station Type Date Time Source
KADG TAF UTC NOAA

Error!


Example: see airport list